createdAt,value
2019-01-08T00:00:07.622Z,1012.43
2019-01-08T00:01:17.301Z,1012.39
2019-01-08T00:02:26.980Z,1012.48
2019-01-08T00:03:36.899Z,1012.49
2019-01-08T00:04:46.572Z,1012.53
2019-01-08T00:05:55.989Z,1012.51
2019-01-08T00:07:05.666Z,1012.42
2019-01-08T00:08:14.583Z,1012.41
2019-01-08T00:09:24.506Z,1012.47
2019-01-08T00:10:34.187Z,1012.45
2019-01-08T00:11:44.118Z,1012.48
2019-01-08T00:12:53.792Z,1012.27
2019-01-08T00:14:03.474Z,1012.4
2019-01-08T00:15:12.648Z,1012.41
2019-01-08T00:16:22.587Z,1012.28
2019-01-08T00:17:32.265Z,1012.47
2019-01-08T00:18:41.193Z,1012.33
2019-01-08T00:19:50.615Z,1012.19
2019-01-08T00:21:00.314Z,1012.25
2019-01-08T00:22:09.746Z,1012.12
2019-01-08T00:23:18.917Z,1012.15
2019-01-08T00:24:28.592Z,1012.08
2019-01-08T00:25:38.294Z,1012.08
2019-01-08T00:26:47.971Z,1012.07
2019-01-08T00:27:57.658Z,1012.03
2019-01-08T00:29:06.851Z,1011.96
2019-01-08T00:30:16.422Z,1012.03
2019-01-08T00:31:25.860Z,1011.94
2019-01-08T00:32:35.540Z,1011.98
2019-01-08T00:33:45.209Z,1011.93
2019-01-08T00:34:54.877Z,1011.98
2019-01-08T00:36:04.356Z,1012.02
2019-01-08T00:37:14.033Z,1011.93
2019-01-08T00:38:23.961Z,1011.96
2019-01-08T00:39:33.887Z,1011.89
2019-01-08T00:40:43.564Z,1011.85
2019-01-08T00:41:53.002Z,1011.9
2019-01-08T00:43:02.683Z,1011.89
2019-01-08T00:44:12.358Z,1011.94
2019-01-08T00:45:22.051Z,1011.81
2019-01-08T00:46:31.474Z,1011.84
2019-01-08T00:47:41.146Z,1011.83
2019-01-08T00:48:50.568Z,1011.92
2019-01-08T00:50:00.495Z,1011.79
2019-01-08T00:51:09.931Z,1011.91
2019-01-08T00:52:19.856Z,1011.86
2019-01-08T00:53:29.290Z,1011.85
2019-01-08T00:54:38.964Z,1011.76
2019-01-08T00:55:48.568Z,1011.85
2019-01-08T00:56:58.239Z,1011.79
2019-01-08T00:58:07.915Z,1011.71
2019-01-08T00:59:17.143Z,1011.72
2019-01-08T01:00:27.076Z,1011.6
2019-01-08T01:01:37.008Z,1011.74
2019-01-08T01:02:46.693Z,1011.6
2019-01-08T01:03:56.121Z,1011.62
2019-01-08T01:05:05.808Z,1011.65
2019-01-08T01:06:15.741Z,1011.61
2019-01-08T01:07:25.424Z,1011.63
2019-01-08T01:08:35.122Z,1011.55
2019-01-08T01:09:44.301Z,1011.55
2019-01-08T01:10:53.984Z,1011.54
2019-01-08T01:12:03.664Z,1011.46
2019-01-08T01:13:13.340Z,1011.51
2019-01-08T01:14:22.767Z,1011.41
2019-01-08T01:15:32.693Z,1011.48
2019-01-08T01:16:42.617Z,1011.5
2019-01-08T01:17:52.292Z,1011.38
2019-01-08T01:19:01.715Z,1011.34
2019-01-08T01:20:11.403Z,1011.38
2019-01-08T01:21:21.327Z,1011.33
2019-01-08T01:22:31.097Z,1011.4
2019-01-08T01:23:40.531Z,1011.23
2019-01-08T01:24:50.209Z,1011.34
2019-01-08T01:25:59.643Z,1011.2
2019-01-08T01:27:09.077Z,1011.34
2019-01-08T01:28:18.744Z,1011.35
2019-01-08T01:29:28.426Z,1011.13
2019-01-08T01:30:37.851Z,1011.17
2019-01-08T01:31:47.543Z,1011.09
2019-01-08T01:32:56.973Z,1011.1
2019-01-08T01:34:06.901Z,1011.09
2019-01-08T01:35:16.826Z,1011.03
2019-01-08T01:36:26.499Z,1010.95
2019-01-08T01:37:36.189Z,1011.06
2019-01-08T01:38:46.119Z,1010.97
2019-01-08T01:39:55.543Z,1011.08
2019-01-08T01:41:05.066Z,1010.99
2019-01-08T01:42:14.999Z,1010.97
2019-01-08T01:43:24.670Z,1010.91
2019-01-08T01:44:34.104Z,1010.9
2019-01-08T01:45:43.781Z,1010.83
2019-01-08T01:46:52.963Z,1010.8
2019-01-08T01:48:02.693Z,1011.01
2019-01-08T01:49:11.873Z,1010.71
2019-01-08T01:50:21.305Z,1010.8
2019-01-08T01:51:30.733Z,1010.69
2019-01-08T01:52:40.412Z,1010.72
2019-01-08T01:53:50.336Z,1010.73
2019-01-08T01:55:00.260Z,1010.73
2019-01-08T01:56:09.939Z,1010.63
2019-01-08T01:57:19.867Z,1010.62
2019-01-08T01:58:29.555Z,1010.66
2019-01-08T01:59:39.479Z,1010.5
2019-01-08T02:00:49.158Z,1010.52
2019-01-08T02:01:59.082Z,1010.49
2019-01-08T02:03:08.609Z,1010.4
2019-01-08T02:04:18.287Z,1010.4
2019-01-08T02:05:27.704Z,1010.46
2019-01-08T02:06:37.127Z,1010.37
2019-01-08T02:07:46.554Z,1010.33
2019-01-08T02:08:56.303Z,1010.31
2019-01-08T02:10:05.977Z,1010.26
2019-01-08T02:11:15.909Z,1010.26
2019-01-08T02:12:25.585Z,1010.13
2019-01-08T02:13:35.092Z,1010.13
2019-01-08T02:14:44.774Z,1010.09
2019-01-08T02:15:54.705Z,1010
2019-01-08T02:17:04.383Z,1009.96
2019-01-08T02:18:14.312Z,1009.93
2019-01-08T02:19:24.234Z,1009.99
2019-01-08T02:20:34.168Z,1009.92
2019-01-08T02:21:43.849Z,1009.92
2019-01-08T02:22:53.529Z,1009.86
2019-01-08T02:24:03.452Z,1009.98
2019-01-08T02:25:13.119Z,1009.94
2019-01-08T02:26:22.792Z,1009.85
2019-01-08T02:27:32.717Z,1010.02
2019-01-08T02:28:42.650Z,1009.95
2019-01-08T02:29:52.334Z,1009.94
2019-01-08T02:31:02.428Z,1009.82
2019-01-08T02:32:12.400Z,1009.88
2019-01-08T02:33:24.673Z,1009.79
2019-01-08T02:34:34.416Z,1009.71
2019-01-08T02:35:44.099Z,1009.67
2019-01-08T02:36:53.540Z,1009.71
2019-01-08T02:38:03.226Z,1009.6
2019-01-08T02:39:13.149Z,1009.47
2019-01-08T02:40:22.322Z,1009.8
2019-01-08T02:41:31.819Z,1009.54
2019-01-08T02:42:42.197Z,1009.63
2019-01-08T02:43:51.744Z,1009.63
2019-01-08T02:45:01.541Z,1009.58
2019-01-08T02:46:11.635Z,1009.65
2019-01-08T02:47:22.188Z,1009.54
2019-01-08T02:48:32.125Z,1009.56
2019-01-08T02:49:41.808Z,1009.53
2019-01-08T02:50:51.741Z,1009.67
2019-01-08T02:52:01.430Z,1009.45
2019-01-08T02:53:11.109Z,1009.5
2019-01-08T02:54:21.114Z,1009.5
2019-01-08T02:55:31.517Z,1009.41
2019-01-08T02:56:41.442Z,1009.48
2019-01-08T02:57:51.147Z,1009.46
2019-01-08T02:59:00.322Z,1009.36
2019-01-08T03:00:10.003Z,1009.34
2019-01-08T03:01:19.438Z,1009.28
2019-01-08T03:02:29.115Z,1009.38
2019-01-08T03:03:38.795Z,1009.17
2019-01-08T03:04:48.723Z,1009.19
2019-01-08T03:05:59.664Z,1009.15
2019-01-08T03:07:09.339Z,1009.15
2019-01-08T03:08:18.834Z,1009.1
2019-01-08T03:09:28.753Z,1009.08
2019-01-08T03:10:38.432Z,1009.01
2019-01-08T03:11:48.100Z,1009.04
2019-01-08T03:12:57.777Z,1009.02
2019-01-08T03:14:07.453Z,1009.09
2019-01-08T03:15:16.872Z,1008.9
2019-01-08T03:16:26.303Z,1009
2019-01-08T03:17:35.991Z,1008.91
2019-01-08T03:18:45.914Z,1009.22
2019-01-08T03:19:55.098Z,1009
2019-01-08T03:21:04.785Z,1008.86
2019-01-08T03:22:14.217Z,1008.86
2019-01-08T03:23:23.650Z,1008.93
2019-01-08T03:24:33.574Z,1008.74
2019-01-08T03:25:42.991Z,1008.83
2019-01-08T03:26:52.916Z,1008.68
2019-01-08T03:28:02.623Z,1008.7
2019-01-08T03:29:12.548Z,1008.53
2019-01-08T03:30:21.976Z,1008.63
2019-01-08T03:31:31.917Z,1008.72
2019-01-08T03:32:42.045Z,1008.48
2019-01-08T03:33:51.465Z,1008.51
2019-01-08T03:35:01.394Z,1008.52
2019-01-08T03:36:11.080Z,1008.37
2019-01-08T03:37:20.752Z,1008.31
2019-01-08T03:38:30.430Z,1008.3
2019-01-08T03:39:40.112Z,1008.14
2019-01-08T03:40:49.779Z,1008.15
2019-01-08T03:41:59.455Z,1008.14
2019-01-08T03:43:09.130Z,1008.13
2019-01-08T03:44:18.806Z,1008.19
2019-01-08T03:45:28.734Z,1008.05
2019-01-08T03:46:38.410Z,1008.03
2019-01-08T03:47:48.332Z,1008.07
2019-01-08T03:48:58.007Z,1007.97
2019-01-08T03:50:07.449Z,1007.96
2019-01-08T03:51:17.125Z,1008.01
2019-01-08T03:52:26.800Z,1007.97
2019-01-08T03:53:36.223Z,1007.91
2019-01-08T03:54:45.908Z,1007.92
2019-01-08T03:55:55.587Z,1007.79
2019-01-08T03:57:05.258Z,1007.79
2019-01-08T03:58:14.441Z,1007.76
2019-01-08T03:59:23.616Z,1007.62
2019-01-08T04:00:33.542Z,1007.66
2019-01-08T04:01:43.219Z,1007.57
2019-01-08T04:02:52.645Z,1007.59
2019-01-08T04:04:02.318Z,1007.57
2019-01-08T04:05:11.751Z,1007.52
2019-01-08T04:06:21.418Z,1007.51
2019-01-08T04:07:31.368Z,1007.58
2019-01-08T04:08:41.041Z,1007.53
2019-01-08T04:09:50.709Z,1007.49
2019-01-08T04:11:00.392Z,1007.45
2019-01-08T04:12:09.818Z,1007.51
2019-01-08T04:13:19.744Z,1007.32
2019-01-08T04:14:29.670Z,1007.32
2019-01-08T04:15:39.600Z,1007.4
2019-01-08T04:16:49.278Z,1007.31
2019-01-08T04:17:59.207Z,1007.3
2019-01-08T04:19:08.885Z,1007.35
2019-01-08T04:20:18.813Z,1007.21
2019-01-08T04:21:28.487Z,1007.21
2019-01-08T04:22:38.412Z,1007.11
2019-01-08T04:23:47.847Z,1007.14
2019-01-08T04:24:57.574Z,1007.09
2019-01-08T04:26:07.251Z,1007.06
2019-01-08T04:27:16.678Z,1007.12
2019-01-08T04:28:26.600Z,1006.94
2019-01-08T04:29:36.025Z,1007.1
2019-01-08T04:30:53.173Z,1006.93
2019-01-08T04:32:02.853Z,1007.01
2019-01-08T04:33:12.525Z,1007.09
2019-01-08T04:34:22.201Z,1006.97
2019-01-08T04:35:31.374Z,1006.87
2019-01-08T04:36:41.058Z,1006.97
2019-01-08T04:37:50.998Z,1006.93
2019-01-08T04:39:00.677Z,1006.87
2019-01-08T04:40:10.107Z,1006.96
2019-01-08T04:41:19.532Z,1006.74
2019-01-08T04:42:28.950Z,1006.77
2019-01-08T04:43:38.623Z,1006.78
2019-01-08T04:44:48.377Z,1006.67
2019-01-08T04:45:58.296Z,1006.67
2019-01-08T04:47:07.972Z,1006.64
2019-01-08T04:48:17.145Z,1006.74
2019-01-08T04:49:26.822Z,1006.72
2019-01-08T04:50:36.497Z,1006.5
2019-01-08T04:51:45.922Z,1006.63
2019-01-08T04:52:55.590Z,1006.45
2019-01-08T04:54:05.022Z,1006.46
2019-01-08T04:55:14.707Z,1006.82
2019-01-08T04:56:24.639Z,1006.33
2019-01-08T04:57:34.318Z,1006.49
2019-01-08T04:58:43.993Z,1006.49
2019-01-08T04:59:58.834Z,1006.36
2019-01-08T05:01:08.530Z,1006.38
2019-01-08T05:02:18.197Z,1006.29
2019-01-08T05:03:28.118Z,1006.24
2019-01-08T05:04:37.793Z,1006.46
2019-01-08T05:05:47.224Z,1006.26
2019-01-08T05:06:58.826Z,1006.25
2019-01-08T05:08:08.819Z,1006.16
2019-01-08T05:09:18.247Z,1006.2
2019-01-08T05:10:27.926Z,1006.14
2019-01-08T05:11:37.099Z,1006.07
2019-01-08T05:12:48.021Z,1006.11
2019-01-08T05:13:57.869Z,1006.04
2019-01-08T05:15:07.793Z,1006.01
2019-01-08T05:16:17.718Z,1006.01
2019-01-08T05:17:27.653Z,1005.89
2019-01-08T05:18:37.089Z,1005.94
2019-01-08T05:19:47.054Z,1005.9
2019-01-08T05:20:56.484Z,1005.83
2019-01-08T05:22:06.172Z,1006.08
2019-01-08T05:23:15.600Z,1006.02
2019-01-08T05:24:25.271Z,1006.39
2019-01-08T05:25:34.949Z,1005.81
2019-01-08T05:26:44.377Z,1005.98
2019-01-08T05:27:54.053Z,1005.72
2019-01-08T05:29:03.721Z,1005.82
2019-01-08T05:30:13.394Z,1005.96
2019-01-08T05:31:23.066Z,1005.83
2019-01-08T05:32:32.241Z,1005.74
2019-01-08T05:33:42.209Z,1005.77
2019-01-08T05:34:52.847Z,1005.83
2019-01-08T05:36:02.777Z,1005.66
2019-01-08T05:37:12.454Z,1005.69
2019-01-08T05:38:22.384Z,1005.88
2019-01-08T05:39:32.058Z,1005.73
2019-01-08T05:40:41.488Z,1005.94
2019-01-08T05:41:50.909Z,1005.73
2019-01-08T05:43:00.400Z,1005.8
2019-01-08T05:44:10.084Z,1005.64
2019-01-08T05:45:20.013Z,1005.67
2019-01-08T05:46:29.459Z,1005.67
2019-01-08T05:47:38.881Z,1005.57
2019-01-08T05:48:48.807Z,1005.72
2019-01-08T05:49:58.481Z,1005.55
2019-01-08T05:51:07.665Z,1005.58
2019-01-08T05:52:17.352Z,1005.87
2019-01-08T05:53:27.284Z,1005.52
2019-01-08T05:54:36.709Z,1005.61
2019-01-08T05:55:46.138Z,1005.63
2019-01-08T05:56:56.058Z,1005.38
2019-01-08T05:58:05.979Z,1005.71
2019-01-08T05:59:15.668Z,1005.6
2019-01-08T06:00:25.099Z,1005.5
2019-01-08T06:01:34.785Z,1005.66
2019-01-08T06:02:44.464Z,1005.34
2019-01-08T06:03:54.146Z,1005.32
2019-01-08T06:05:03.320Z,1005.36
2019-01-08T06:06:13.245Z,1005.73
2019-01-08T06:07:22.928Z,1005.31
2019-01-08T06:08:32.611Z,1005.3
2019-01-08T06:09:42.283Z,1005.26
2019-01-08T06:10:51.960Z,1005.42
2019-01-08T06:12:01.878Z,1005.3
2019-01-08T06:13:11.583Z,1005.15
2019-01-08T06:14:21.349Z,1005.45
2019-01-08T06:15:31.027Z,1005.32
2019-01-08T06:16:40.448Z,1005.23
2019-01-08T06:17:50.129Z,1005.17
2019-01-08T06:18:59.562Z,1005.34
2019-01-08T06:20:09.230Z,1005.17
2019-01-08T06:21:18.408Z,1005.16
2019-01-08T06:22:27.835Z,1005.08
2019-01-08T06:23:37.014Z,1005.2
2019-01-08T06:24:46.440Z,1005.14
2019-01-08T06:25:55.870Z,1005.16
2019-01-08T06:27:05.573Z,1005.2
2019-01-08T06:28:14.999Z,1005.03
2019-01-08T06:29:24.172Z,1005.32
2019-01-08T06:30:33.595Z,1005.08
2019-01-08T06:31:43.265Z,1005.38
2019-01-08T06:32:52.939Z,1004.96
2019-01-08T06:34:02.112Z,1005.12
2019-01-08T06:35:12.050Z,1004.99
2019-01-08T06:36:21.725Z,1005.05
2019-01-08T06:37:31.569Z,1004.99
2019-01-08T06:38:41.261Z,1004.97
2019-01-08T06:39:51.197Z,1004.92
2019-01-08T06:41:00.901Z,1004.91
2019-01-08T06:42:10.340Z,1005.07
2019-01-08T06:43:19.766Z,1004.91
2019-01-08T06:44:29.446Z,1004.87
2019-01-08T06:45:39.371Z,1005.02
2019-01-08T06:46:49.304Z,1004.85
2019-01-08T06:47:59.235Z,1004.7
2019-01-08T06:49:08.911Z,1004.81
2019-01-08T06:50:18.335Z,1004.77
2019-01-08T06:51:28.009Z,1004.89
2019-01-08T06:52:37.445Z,1005.07
2019-01-08T06:53:46.875Z,1004.72
2019-01-08T06:54:56.307Z,1004.85
2019-01-08T06:56:06.230Z,1004.79
2019-01-08T06:57:17.598Z,1005.14
2019-01-08T06:58:27.273Z,1004.68
2019-01-08T06:59:36.705Z,1004.74
2019-01-08T07:00:46.627Z,1004.65
2019-01-08T07:01:56.060Z,1004.94
2019-01-08T07:03:05.737Z,1004.54
2019-01-08T07:04:15.177Z,1004.56
2019-01-08T07:05:24.349Z,1004.61
2019-01-08T07:06:33.775Z,1004.5
2019-01-08T07:07:43.448Z,1004.48
2019-01-08T07:08:53.371Z,1004.67
2019-01-08T07:10:02.805Z,1004.37
2019-01-08T07:11:12.730Z,1004.35
2019-01-08T07:12:22.403Z,1004.54
2019-01-08T07:13:32.081Z,1004.41
2019-01-08T07:14:42.072Z,1004.56
2019-01-08T07:15:52.495Z,1004.66
2019-01-08T07:17:02.518Z,1004.24
2019-01-08T07:18:12.210Z,1004.17
2019-01-08T07:19:22.133Z,1004.29
2019-01-08T07:20:31.067Z,1004.36
2019-01-08T07:21:40.742Z,1004.25
2019-01-08T07:22:50.421Z,1004.15
2019-01-08T07:24:00.348Z,1004.14
2019-01-08T07:25:09.775Z,1004.17
2019-01-08T07:26:19.703Z,1004.15
2019-01-08T07:27:29.377Z,1003.99
2019-01-08T07:28:39.051Z,1004.12
2019-01-08T07:29:48.478Z,1004.07
2019-01-08T07:30:58.160Z,1004.23
2019-01-08T07:32:07.919Z,1004.17
2019-01-08T07:33:17.912Z,1004.24
2019-01-08T07:34:27.842Z,1004.31
2019-01-08T07:35:37.876Z,1004.12
2019-01-08T07:36:47.812Z,1004.02
2019-01-08T07:37:57.587Z,1004.12
2019-01-08T07:39:07.457Z,1003.96
2019-01-08T07:40:16.886Z,1004.16
2019-01-08T07:41:26.422Z,1004.16
2019-01-08T07:42:36.068Z,1004
2019-01-08T07:43:45.493Z,1004
2019-01-08T07:44:55.030Z,1004.05
2019-01-08T07:46:04.206Z,1003.83
2019-01-08T07:47:13.980Z,1003.91
2019-01-08T07:48:23.848Z,1003.94
2019-01-08T07:49:33.527Z,1003.93
2019-01-08T07:50:42.706Z,1003.87
2019-01-08T07:51:52.342Z,1003.74
2019-01-08T07:53:01.884Z,1003.89
2019-01-08T07:54:11.436Z,1003.91
2019-01-08T07:55:21.121Z,1003.74
2019-01-08T07:56:30.551Z,1003.65
2019-01-08T07:57:40.221Z,1003.71
2019-01-08T07:58:49.768Z,1003.77
2019-01-08T07:59:59.704Z,1003.85
2019-01-08T08:01:09.382Z,1003.9
2019-01-08T08:02:19.046Z,1003.79
2019-01-08T08:03:28.973Z,1003.9
2019-01-08T08:04:38.408Z,1003.96
2019-01-08T08:05:54.915Z,1003.78
2019-01-08T08:07:05.036Z,1003.78
2019-01-08T08:08:14.486Z,1003.84
2019-01-08T08:09:24.164Z,1003.77
2019-01-08T08:10:33.660Z,1003.82
2019-01-08T08:11:43.329Z,1003.73
2019-01-08T08:12:52.762Z,1003.9
2019-01-08T08:14:02.203Z,1003.82
2019-01-08T08:15:12.068Z,1003.73
2019-01-08T08:16:21.800Z,1003.79
2019-01-08T08:17:31.728Z,1003.74
2019-01-08T08:18:41.655Z,1003.76
2019-01-08T08:19:51.582Z,1003.96
2019-01-08T08:21:01.271Z,1004.02
2019-01-08T08:22:10.700Z,1003.73
2019-01-08T08:23:20.177Z,1003.7
2019-01-08T08:24:29.907Z,1003.79
2019-01-08T08:25:39.339Z,1003.76
2019-01-08T08:26:48.276Z,1003.78
2019-01-08T08:27:57.959Z,1003.82
2019-01-08T08:29:07.153Z,1003.89
2019-01-08T08:30:17.084Z,1003.84
2019-01-08T08:31:29.092Z,1003.64
2019-01-08T08:32:38.771Z,1003.96
2019-01-08T08:33:48.201Z,1004.27
2019-01-08T08:34:57.389Z,1004.1
2019-01-08T08:36:15.862Z,1003.99
2019-01-08T08:37:25.833Z,1004.15
2019-01-08T08:38:35.514Z,1004.33
2019-01-08T08:39:44.994Z,1004.26
2019-01-08T08:40:54.958Z,1004.22
2019-01-08T08:42:04.984Z,1004.4
2019-01-08T08:43:14.680Z,1004.46
2019-01-08T08:44:24.356Z,1004.41
2019-01-08T08:45:34.027Z,1004.13
2019-01-08T08:46:43.703Z,1004.27
2019-01-08T08:47:53.374Z,1004.3
2019-01-08T08:49:03.056Z,1004.29
2019-01-08T08:50:12.735Z,1004.21
2019-01-08T08:51:22.669Z,1004.25
2019-01-08T08:52:32.594Z,1004.39
2019-01-08T08:53:42.269Z,1004.26
2019-01-08T08:54:59.987Z,1004.31
2019-01-08T08:56:09.671Z,1004.44
2019-01-08T08:57:19.355Z,1004.33
2019-01-08T08:58:29.274Z,1004.36
2019-01-08T08:59:38.902Z,1004.25
2019-01-08T09:00:48.324Z,1004.37
2019-01-08T09:01:57.856Z,1004.23
2019-01-08T09:03:07.434Z,1004.33
2019-01-08T09:04:16.787Z,1004.29
2019-01-08T09:05:26.469Z,1004.24
2019-01-08T09:06:36.182Z,1004.31
2019-01-08T09:07:45.669Z,1004.32
2019-01-08T09:08:55.304Z,1004.26
2019-01-08T09:10:05.288Z,1004.22
2019-01-08T09:11:15.242Z,1004.53
2019-01-08T09:12:25.181Z,1004.2
2019-01-08T09:13:35.144Z,1004.61
2019-01-08T09:14:44.668Z,1004.37
2019-01-08T09:15:54.272Z,1004.39
2019-01-08T09:17:04.152Z,1004.37
2019-01-08T09:18:14.083Z,1004.35
2019-01-08T09:19:23.292Z,1004.38
2019-01-08T09:20:32.980Z,1004.39
2019-01-08T09:21:42.659Z,1004.4
2019-01-08T09:22:52.429Z,1004.39
2019-01-08T09:24:02.456Z,1004.39
2019-01-08T09:25:11.885Z,1004.37
2019-01-08T09:26:21.557Z,1004.41
2019-01-08T09:27:30.900Z,1004.38
2019-01-08T09:28:40.878Z,1004.37
2019-01-08T09:29:50.571Z,1004.42
2019-01-08T09:30:59.753Z,1004.4
2019-01-08T09:32:18.314Z,1004.44
2019-01-08T09:33:28.143Z,1004.45
2019-01-08T09:34:38.094Z,1004.59
2019-01-08T09:35:47.526Z,1004.58
2019-01-08T09:36:58.450Z,1004.58
2019-01-08T09:38:07.385Z,1004.38
2019-01-08T09:39:16.674Z,1004.47
2019-01-08T09:40:26.143Z,1004.45
2019-01-08T09:41:35.325Z,1004.53
2019-01-08T09:42:44.857Z,1004.63
2019-01-08T09:43:54.547Z,1004.61
2019-01-08T09:45:03.968Z,1004.58
2019-01-08T09:46:14.083Z,1004.58
2019-01-08T09:47:23.796Z,1004.58
2019-01-08T09:48:33.400Z,1004.67
2019-01-08T09:49:43.550Z,1004.69
2019-01-08T09:50:53.348Z,1004.72
2019-01-08T09:52:03.050Z,1004.9
2019-01-08T09:53:12.980Z,1004.73
2019-01-08T09:54:22.168Z,1004.62
2019-01-08T09:55:31.614Z,1004.69
2019-01-08T09:56:41.387Z,1004.79
2019-01-08T09:57:51.066Z,1004.68
2019-01-08T09:59:00.746Z,1004.53
2019-01-08T10:00:10.129Z,1004.49
2019-01-08T10:01:23.970Z,1004.66
2019-01-08T10:02:33.970Z,1004.54
2019-01-08T10:03:43.648Z,1004.56
2019-01-08T10:04:53.201Z,1004.63
2019-01-08T10:06:02.830Z,1004.71
2019-01-08T10:07:12.511Z,1004.61
2019-01-08T10:08:22.190Z,1004.61
2019-01-08T10:09:31.614Z,1004.58
2019-01-08T10:10:41.292Z,1004.65
2019-01-08T10:11:51.228Z,1004.63
2019-01-08T10:13:01.262Z,1004.65
2019-01-08T10:14:11.057Z,1004.63
2019-01-08T10:15:20.357Z,1004.61
2019-01-08T10:16:30.144Z,1004.65
2019-01-08T10:17:39.579Z,1004.48
2019-01-08T10:18:49.459Z,1004.62
2019-01-08T10:19:59.391Z,1004.45
2019-01-08T10:21:09.162Z,1004.29
2019-01-08T10:22:18.884Z,1004.44
2019-01-08T10:23:28.399Z,1004.4
2019-01-08T10:24:38.271Z,1004.43
2019-01-08T10:25:47.678Z,1004.48
2019-01-08T10:26:57.378Z,1004.59
2019-01-08T10:28:07.050Z,1004.9
2019-01-08T10:29:16.441Z,1004.7
2019-01-08T10:30:26.076Z,1005.1
2019-01-08T10:31:36.016Z,1004.82
2019-01-08T10:32:45.299Z,1005.29
2019-01-08T10:33:54.984Z,1004.92
2019-01-08T10:35:04.910Z,1005.03
2019-01-08T10:36:14.840Z,1005.07
2019-01-08T10:37:24.110Z,1004.92
2019-01-08T10:38:34.476Z,1004.87
2019-01-08T10:39:44.158Z,1005.07
2019-01-08T10:40:53.903Z,1004.86
2019-01-08T10:42:03.833Z,1004.92
2019-01-08T10:43:13.508Z,1004.71
2019-01-08T10:44:23.755Z,1004.8
2019-01-08T10:45:34.491Z,1004.83
2019-01-08T10:46:44.249Z,1004.96
2019-01-08T10:47:53.929Z,1004.92
2019-01-08T10:49:03.612Z,1004.92
2019-01-08T10:50:13.598Z,1004.85
2019-01-08T10:51:23.279Z,1004.98
2019-01-08T10:52:32.971Z,1005.13
2019-01-08T10:53:42.746Z,1005.04
2019-01-08T10:54:52.679Z,1005.03
2019-01-08T10:56:02.629Z,1005.01
2019-01-08T10:57:12.790Z,1005.01
2019-01-08T10:58:22.847Z,1004.91
2019-01-08T10:59:32.391Z,1005.03
2019-01-08T11:00:42.315Z,1005.05
2019-01-08T11:01:51.992Z,1005.04
2019-01-08T11:03:02.097Z,1005.02
2019-01-08T11:04:12.023Z,1005.09
2019-01-08T11:05:21.558Z,1004.98
2019-01-08T11:06:33.656Z,1004.95
2019-01-08T11:07:43.331Z,1004.99
2019-01-08T11:08:53.011Z,1004.93
2019-01-08T11:10:02.694Z,1004.82
2019-01-08T11:11:12.818Z,1005.16
2019-01-08T11:12:22.750Z,1005.2
2019-01-08T11:13:32.496Z,1004.89
2019-01-08T11:14:42.453Z,1004.94
2019-01-08T11:15:52.126Z,1004.89
2019-01-08T11:17:01.812Z,1005.04
2019-01-08T11:18:11.933Z,1004.92
2019-01-08T11:19:21.754Z,1005.31
2019-01-08T11:20:31.429Z,1005.13
2019-01-08T11:21:41.317Z,1005.05
2019-01-08T11:22:51.244Z,1005.24
2019-01-08T11:24:01.002Z,1005.01
2019-01-08T11:25:10.782Z,1005.1
2019-01-08T11:26:20.577Z,1005.39
2019-01-08T11:27:30.254Z,1005.09
2019-01-08T11:28:39.921Z,1005.01
2019-01-08T11:29:50.856Z,1005.07
2019-01-08T11:31:00.650Z,1005.21
2019-01-08T11:32:10.447Z,1005.08
2019-01-08T11:33:19.887Z,1005.1
2019-01-08T11:34:29.600Z,1005.08
2019-01-08T11:35:42.247Z,1005
2019-01-08T11:36:52.161Z,1005.07
2019-01-08T11:38:01.601Z,1005.09
2019-01-08T11:39:11.489Z,1005.12
2019-01-08T11:40:21.194Z,1005.36
2019-01-08T11:41:31.042Z,1005.03
2019-01-08T11:42:40.721Z,1005.09
2019-01-08T11:43:50.860Z,1005.06
2019-01-08T11:45:00.895Z,1005.13
2019-01-08T11:46:10.433Z,1005
2019-01-08T11:47:19.973Z,1005.26
2019-01-08T11:48:29.646Z,1005.03
2019-01-08T11:49:39.388Z,1005.14
2019-01-08T11:50:49.277Z,1005.03
2019-01-08T11:51:58.707Z,1005.03
2019-01-08T11:53:08.405Z,1005.17
2019-01-08T11:54:18.306Z,1004.93
2019-01-08T11:55:28.157Z,1005.29
2019-01-08T11:56:37.590Z,1005.04
2019-01-08T11:57:47.013Z,1005.09
2019-01-08T11:58:57.370Z,1004.99
2019-01-08T12:00:07.056Z,1005.03
2019-01-08T12:01:16.970Z,1004.93
2019-01-08T12:02:26.944Z,1005.12
2019-01-08T12:03:36.874Z,1005.1
2019-01-08T12:04:46.824Z,1004.96
2019-01-08T12:05:57.323Z,1005.1
2019-01-08T12:07:07.462Z,1005.02
2019-01-08T12:08:16.637Z,1005.16
2019-01-08T12:09:25.817Z,1005.07
2019-01-08T12:10:35.249Z,1005.1
2019-01-08T12:11:44.676Z,1005.03
2019-01-08T12:12:53.854Z,1005.05
2019-01-08T12:14:03.270Z,1005.03
2019-01-08T12:15:12.706Z,1005.27
2019-01-08T12:16:22.140Z,1005.39
2019-01-08T12:17:32.060Z,1004.98
2019-01-08T12:18:41.736Z,1005.07
2019-01-08T12:19:52.312Z,1005.07
2019-01-08T12:21:01.999Z,1005.24
2019-01-08T12:22:11.680Z,1005
2019-01-08T12:23:21.616Z,1005
2019-01-08T12:24:31.545Z,1004.94
2019-01-08T12:25:41.470Z,1004.97
2019-01-08T12:26:51.214Z,1005.02
2019-01-08T12:28:00.594Z,1005.02
2019-01-08T12:29:10.286Z,1004.9
2019-01-08T12:30:20.236Z,1005.01
2019-01-08T12:31:30.183Z,1004.91
2019-01-08T12:32:39.354Z,1004.98
2019-01-08T12:33:49.130Z,1005
2019-01-08T12:34:58.592Z,1004.98
2019-01-08T12:36:08.280Z,1004.89
2019-01-08T12:37:17.956Z,1005.05
2019-01-08T12:38:27.632Z,1004.93
2019-01-08T12:39:37.064Z,1004.77
2019-01-08T12:40:46.749Z,1004.83
2019-01-08T12:41:56.430Z,1004.71
2019-01-08T12:43:06.365Z,1004.93
2019-01-08T12:44:16.043Z,1004.71
2019-01-08T12:45:25.725Z,1004.81
2019-01-08T12:46:35.154Z,1004.56
2019-01-08T12:47:45.091Z,1004.72
2019-01-08T12:48:54.877Z,1004.73
2019-01-08T12:50:04.301Z,1004.73
2019-01-08T12:51:13.488Z,1004.73
2019-01-08T12:52:23.174Z,1004.91
2019-01-08T12:53:33.112Z,1004.92
2019-01-08T12:54:43.044Z,1004.79
2019-01-08T12:55:52.725Z,1004.89
2019-01-08T12:57:02.170Z,1004.75
2019-01-08T12:58:11.845Z,1004.9
2019-01-08T12:59:21.772Z,1004.84
2019-01-08T13:00:31.506Z,1004.94
2019-01-08T13:01:41.536Z,1004.82
2019-01-08T13:02:50.727Z,1005
2019-01-08T13:04:00.406Z,1005.12
2019-01-08T13:05:10.145Z,1005.02
2019-01-08T13:06:19.318Z,1005.04
2019-01-08T13:07:28.998Z,1005
2019-01-08T13:08:38.433Z,1005.1
2019-01-08T13:09:48.110Z,1004.96
2019-01-08T13:10:57.810Z,1005.03
2019-01-08T13:12:06.984Z,1004.91
2019-01-08T13:13:16.481Z,1005.13
2019-01-08T13:14:26.180Z,1004.99
2019-01-08T13:15:35.859Z,1004.97
2019-01-08T13:16:45.786Z,1005.1
2019-01-08T13:17:54.965Z,1005.01
2019-01-08T13:19:04.392Z,1005.03
2019-01-08T13:20:14.075Z,1005.06
2019-01-08T13:21:24.001Z,1005
2019-01-08T13:22:33.675Z,1005.07
2019-01-08T13:23:43.108Z,1005.06
2019-01-08T13:24:52.535Z,1005.12
2019-01-08T13:26:02.465Z,1005.1
2019-01-08T13:27:12.393Z,1005.08
2019-01-08T13:28:23.483Z,1005.03
2019-01-08T13:29:33.513Z,1005.06
2019-01-08T13:30:43.441Z,1004.98
2019-01-08T13:31:53.117Z,1005.02
2019-01-08T13:33:02.293Z,1004.98
2019-01-08T13:34:11.750Z,1005.12
2019-01-08T13:35:21.683Z,1004.96
2019-01-08T13:36:31.147Z,1004.91
2019-01-08T13:37:40.835Z,1004.87
2019-01-08T13:38:50.519Z,1004.9
2019-01-08T13:40:00.038Z,1004.9
2019-01-08T13:41:10.002Z,1004.89
2019-01-08T13:42:19.690Z,1004.87
2019-01-08T13:43:29.619Z,1004.85
2019-01-08T13:44:39.396Z,1004.77
2019-01-08T13:45:49.114Z,1004.89
2019-01-08T13:46:58.067Z,1004.86
2019-01-08T13:48:07.554Z,1004.89
2019-01-08T13:49:17.227Z,1005.14
2019-01-08T13:50:27.147Z,1004.89
2019-01-08T13:51:37.070Z,1004.8
2019-01-08T13:52:46.600Z,1004.87
2019-01-08T13:53:56.535Z,1004.88
2019-01-08T13:55:06.214Z,1004.91
2019-01-08T13:56:16.148Z,1005.01
2019-01-08T13:57:25.578Z,1004.95
2019-01-08T13:58:34.754Z,1004.87
2019-01-08T13:59:44.495Z,1004.99
2019-01-08T14:00:53.670Z,1005.14
2019-01-08T14:02:03.345Z,1005.05
2019-01-08T14:03:13.267Z,1004.98
2019-01-08T14:04:22.457Z,1005.14
2019-01-08T14:05:32.382Z,1004.98
2019-01-08T14:06:42.311Z,1005.1
2019-01-08T14:07:51.486Z,1005.07